Kezdőlap
METAR-TAF:

METAR-TAF

Repülőterek :

Baza 71 Aeriană

Aranyosgyéres, Románia

földrajzi szélesség: 46-30-12N, földrajzi hosszúság: 023-53-07E, magasság: 324 m

Jelenlegi meteorológiai megfigyelések

A jelentés 29 perccel ezelõtt készült, 13:00 UTC
Különbözõ irányokból fújó szél 2 kt
Hőmérséklet 11°C
Páratartalom 58%
Légköri nyomás 1016 hPa
Látótávolság 10 km, vagy több
Kevés felhő 20000 lábon

METAR: LRCT 151300Z VRB02KT 9999 FEW200 11/03 Q1016 BLU BLU

Idő: 15:29 (13:29 UTC)

Előrejelzés

A jelentés 2 órával és 29 perccel ezelõtt készült, 11:00 UTC
Az előrejelzés 15-én 12 óra UTC és 16-én 12 óra UTC között érvényes
Különbözõ irányokból fújó szél 2 kt
Látótávolság 10 km, vagy több
Derült ég
16-én 01 óra UTC és 16-én 05 óra UTC között ideiglenes
Látótávolság: 3000 m
Szórványos felhőzet 1000 lábon
Párásság

TAF: LRCT 151100Z 1512/1612 VRB02KT 9999 SKC TEMPO 1601/1605 3000 BR SCT010

Meteorológiai megfigyelések és előrejelzések több, mint 4000 repülőtéren (METAR és TAF jelentéseket).

A térképen piros és sárga pontok jelzik az elérhető meteorológiai állomásokat.

Mozgassa az egeret a pont fölött, hogy megjelenjen az állomás neve.

Azután kattintson az időjárási megfigyelések és előrejelzések megtekintéséhez.

A térkép megváltoztatása: kattintson a fekete keresztel jelölt zöld gombra ráközelítéshez, a vonallal jelölt zöld gombra távolításhoz, vagy a zöld nyilakra a szomszédos térképek eléréséhez.


METAR-TAF: